Time;durP1;ratioP1;P1;durP2;ratioP2;P2;SDS_P1;SDS_P2;PMS_P1;PMS_P2;Temp;Humidity;BMP_temperature;BMP_pressure;BME280_temperature;BME280_humidity;BME280_pressure;Samples;Min_cycle;Max_cycle;Signal;HPM_P1;HPM_P2
2021/12/05 00:23:40;;;;;;;51.88;15.43;;;;;;;;;;5008964;28;20332;-64
2021/12/05 00:26:09;;;;;;;57.22;15.00;;;;;;;;;;5008595;28;20451;-64
2021/12/05 00:37:00;;;;;;;51.33;15.25;;;;;;;;;;5012713;28;20033;-64
2021/12/05 00:47:10;;;;;;;54.07;15.57;;;;;;;;;;5012214;28;20486;-64
2021/12/05 01:11:15;;;;;;;42.58;13.07;;;;;;;;;;5012229;28;20406;-64
2021/12/05 01:15:55;;;;;;;44.90;13.02;;;;;;;;;;5012961;28;20351;-64
2021/12/05 01:18:21;;;;;;;43.60;14.05;;;;;;;;;;5014061;28;20421;-65
2021/12/05 01:20:53;;;;;;;45.72;12.57;;;;;;;;;;5011906;28;20043;-65
2021/12/05 01:23:43;;;;;;;43.95;14.05;;;;;;;;;;5011980;28;20360;-66
2021/12/05 01:26:14;;;;;;;40.38;12.35;;;;;;;;;;5011635;28;20308;-67
2021/12/05 01:31:23;;;;;;;45.88;13.45;;;;;;;;;;5011214;28;20477;-64
2021/12/05 01:34:13;;;;;;;44.05;12.43;;;;;;;;;;5011789;28;20144;-64
2021/12/05 01:37:19;;;;;;;37.83;12.77;;;;;;;;;;5011526;28;20407;-64
2021/12/05 01:53:37;;;;;;;39.97;11.57;;;;;;;;;;4929640;28;20446;-64
2021/12/05 02:10:47;;;;;;;39.92;12.32;;;;;;;;;;4997437;28;20132;-67
2021/12/05 02:15:54;;;;;;;39.90;11.25;;;;;;;;;;5011974;28;20513;-64
2021/12/05 02:34:40;;;;;;;30.95;10.95;;;;;;;;;;5010337;28;20055;-64
2021/12/05 02:42:29;;;;;;;27.15;9.85;;;;;;;;;;5010064;28;20431;-64
2021/12/05 02:44:55;;;;;;;34.22;10.73;;;;;;;;;;5010039;28;20327;-64
2021/12/05 02:47:23;;;;;;;31.25;10.30;;;;;;;;;;5010950;28;20028;-64
2021/12/05 02:49:50;;;;;;;32.08;11.52;;;;;;;;;;5009887;28;20479;-64
2021/12/05 02:52:23;;;;;;;28.80;9.77;;;;;;;;;;5009106;28;20440;-64
2021/12/05 02:54:52;;;;;;;29.90;8.98;;;;;;;;;;5009935;28;20356;-64
2021/12/05 02:57:26;;;;;;;33.42;10.63;;;;;;;;;;5009591;28;20020;-64
2021/12/05 02:59:57;;;;;;;33.40;10.85;;;;;;;;;;5010635;28;20510;-64
2021/12/05 03:02:29;;;;;;;31.30;9.82;;;;;;;;;;5009702;28;20311;-66
2021/12/05 03:04:58;;;;;;;27.35;9.38;;;;;;;;;;5010175;28;20033;-64
2021/12/05 03:07:27;;;;;;;;;;;;;;;;;;5011939;28;20028;-64
2021/12/05 03:09:52;;;;;;;;;;;;;;;;;;5010047;28;20401;-64
2021/12/05 03:12:19;;;;;;;23.80;7.55;;;;;;;;;;5011132;28;20362;-64
2021/12/05 03:14:46;;;;;;;23.10;7.90;;;;;;;;;;5009286;28;20393;-64
2021/12/05 03:17:11;;;;;;;25.60;9.20;;;;;;;;;;5009404;28;20021;-64
2021/12/05 03:19:36;;;;;;;23.88;8.15;;;;;;;;;;4991457;28;20462;-64
2021/12/05 03:22:02;;;;;;;24.13;9.23;;;;;;;;;;5009799;28;20363;-65
2021/12/05 03:24:29;;;;;;;26.52;9.05;;;;;;;;;;4991552;28;20419;-64
2021/12/05 03:26:54;;;;;;;23.88;8.02;;;;;;;;;;5008867;28;20402;-65
2021/12/05 03:29:21;;;;;;;21.90;7.72;;;;;;;;;;5009063;28;20091;-64
2021/12/05 03:31:47;;;;;;;23.80;8.88;;;;;;;;;;5009431;28;20413;-66
2021/12/05 03:34:16;;;;;;;24.73;7.85;;;;;;;;;;5009022;28;20432;-66
2021/12/05 03:36:44;;;;;;;22.60;8.18;;;;;;;;;;5009897;28;20046;-64
2021/12/05 03:39:10;;;;;;;25.48;8.20;;;;;;;;;;5008669;28;20500;-64
2021/12/05 03:41:37;;;;;;;25.60;8.32;;;;;;;;;;5010458;28;20402;-64
2021/12/05 03:44:04;;;;;;;28.10;8.27;;;;;;;;;;5009834;28;20386;-64
2021/12/05 03:46:30;;;;;;;23.30;7.35;;;;;;;;;;5009877;28;20355;-64
2021/12/05 03:48:58;;;;;;;23.90;8.32;;;;;;;;;;5007903;28;20493;-64
2021/12/05 03:51:27;;;;;;;19.92;6.60;;;;;;;;;;5007398;28;20028;-64
2021/12/05 03:53:52;;;;;;;29.10;7.75;;;;;;;;;;5009872;28;20327;-64
2021/12/05 03:56:19;;;;;;;25.15;7.63;;;;;;;;;;5008637;28;20297;-64
2021/12/05 03:58:46;;;;;;;21.77;6.80;;;;;;;;;;5008567;28;20082;-64
2021/12/05 04:01:13;;;;;;;19.63;7.88;;;;;;;;;;5009154;28;20320;-64
2021/12/05 04:03:39;;;;;;;22.15;8.25;;;;;;;;;;5008382;28;20118;-64
2021/12/05 04:06:06;;;;;;;19.63;7.55;;;;;;;;;;5009133;28;20423;-64
2021/12/05 04:08:32;;;;;;;19.73;6.78;;;;;;;;;;5008132;28;20090;-64
2021/12/05 04:11:05;;;;;;;19.63;7.82;;;;;;;;;;5010420;28;20040;-65
2021/12/05 04:13:31;;;;;;;21.25;6.97;;;;;;;;;;5008820;28;20447;-64
2021/12/05 04:16:05;;;;;;;17.52;6.15;;;;;;;;;;5008677;28;20297;-64
2021/12/05 04:18:31;;;;;;;22.35;7.38;;;;;;;;;;5008656;28;20395;-66
2021/12/05 04:20:56;;;;;;;20.33;6.43;;;;;;;;;;5008327;28;20036;-64
2021/12/05 04:23:22;;;;;;;19.17;6.38;;;;;;;;;;5008653;28;20506;-64
2021/12/05 04:25:50;;;;;;;20.70;6.55;;;;;;;;;;5008901;28;20427;-64
2021/12/05 04:28:17;;;;;;;21.88;6.22;;;;;;;;;;5008331;28;20439;-64
2021/12/05 04:30:42;;;;;;;19.25;6.93;;;;;;;;;;5008957;28;20055;-65
2021/12/05 04:33:08;;;;;;;16.33;6.22;;;;;;;;;;5008707;28;20025;-64
2021/12/05 04:35:34;;;;;;;15.57;6.03;;;;;;;;;;5008412;28;20424;-64
2021/12/05 04:38:00;;;;;;;14.70;5.55;;;;;;;;;;5006889;28;20490;-64
2021/12/05 04:40:25;;;;;;;16.08;5.35;;;;;;;;;;5008194;28;20404;-66
2021/12/05 04:42:50;;;;;;;16.10;5.72;;;;;;;;;;5006694;28;20382;-64
2021/12/05 04:45:26;;;;;;;12.95;5.25;;;;;;;;;;5008216;28;20503;-64
2021/12/05 04:47:52;;;;;;;22.20;6.25;;;;;;;;;;5008558;28;20457;-64
2021/12/05 04:50:18;;;;;;;16.60;6.20;;;;;;;;;;4990405;28;20450;-66
2021/12/05 04:52:43;;;;;;;16.35;5.25;;;;;;;;;;5008177;28;20457;-64
2021/12/05 04:55:10;;;;;;;17.92;6.25;;;;;;;;;;5008695;28;20467;-65
2021/12/05 04:57:37;;;;;;;15.90;5.28;;;;;;;;;;5009186;28;20382;-64
2021/12/05 05:00:09;;;;;;;16.85;5.88;;;;;;;;;;5009624;28;20389;-64
2021/12/05 05:02:34;;;;;;;13.25;5.28;;;;;;;;;;5009485;28;20343;-64
2021/12/05 05:05:00;;;;;;;14.32;5.63;;;;;;;;;;5008147;28;20355;-64
2021/12/05 05:07:27;;;;;;;14.07;5.47;;;;;;;;;;5008323;28;20351;-64
2021/12/05 05:09:57;;;;;;;14.50;5.22;;;;;;;;;;5008606;28;20355;-64
2021/12/05 05:12:22;;;;;;;14.10;5.22;;;;;;;;;;5008573;28;20440;-64
2021/12/05 05:14:48;;;;;;;15.63;5.03;;;;;;;;;;5010263;28;20431;-65
2021/12/05 05:17:13;;;;;;;15.25;5.20;;;;;;;;;;5011424;28;20342;-64
2021/12/05 05:19:44;;;;;;;11.82;4.88;;;;;;;;;;5011844;28;20439;-64
2021/12/05 05:25:33;;;;;;;13.95;4.50;;;;;;;;;;5011612;28;20060;-65
2021/12/05 05:46:27;;;;;;;11.75;5.28;;;;;;;;;;5011415;28;20339;-65
2021/12/05 05:49:12;;;;;;;10.82;4.95;;;;;;;;;;5010783;28;20435;-64
2021/12/05 05:51:37;;;;;;;9.95;4.35;;;;;;;;;;5011019;28;20037;-64
2021/12/05 05:54:02;;;;;;;8.70;4.38;;;;;;;;;;5010522;28;20486;-64
2021/12/05 05:56:29;;;;;;;10.35;4.28;;;;;;;;;;5011450;28;20486;-65
2021/12/05 05:59:12;;;;;;;16.23;4.45;;;;;;;;;;5011676;28;20528;-64
2021/12/05 06:04:04;;;;;;;10.45;3.90;;;;;;;;;;5010734;28;20426;-65
2021/12/05 06:06:31;;;;;;;12.00;5.18;;;;;;;;;;5011015;28;20428;-64
2021/12/05 06:08:56;;;;;;;11.77;4.85;;;;;;;;;;5011137;28;20391;-64
2021/12/05 06:11:22;;;;;;;12.27;4.95;;;;;;;;;;5009176;28;20378;-64
2021/12/05 06:13:48;;;;;;;9.63;4.43;;;;;;;;;;5011226;28;20508;-64
2021/12/05 06:16:14;;;;;;;10.23;4.15;;;;;;;;;;5010410;28;20166;-64
2021/12/05 06:18:40;;;;;;;10.98;4.00;;;;;;;;;;5010163;28;20032;-65
2021/12/05 06:21:07;;;;;;;9.13;4.18;;;;;;;;;;4992650;28;20094;-65
2021/12/05 06:23:33;;;;;;;10.00;3.90;;;;;;;;;;4992459;28;20347;-64
2021/12/05 06:25:59;;;;;;;16.05;4.43;;;;;;;;;;5008901;28;20406;-64
2021/12/05 06:28:38;;;;;;;11.52;4.00;;;;;;;;;;5010587;28;20335;-64
2021/12/05 06:39:21;;;;;;;11.60;5.00;;;;;;;;;;5010770;28;20372;-64
2021/12/05 06:41:58;;;;;;;8.30;3.72;;;;;;;;;;5010330;28;20509;-64
2021/12/05 06:47:09;;;;;;;8.90;3.80;;;;;;;;;;5009623;28;20125;-64
2021/12/05 06:49:35;;;;;;;8.48;3.85;;;;;;;;;;5010147;28;20089;-64
2021/12/05 06:52:00;;;;;;;10.35;3.60;;;;;;;;;;4991807;28;20028;-64
2021/12/05 06:54:26;;;;;;;8.55;3.58;;;;;;;;;;5010621;28;20284;-64
2021/12/05 06:56:51;;;;;;;9.52;4.57;;;;;;;;;;5009766;28;20430;-64
2021/12/05 06:59:17;;;;;;;9.75;4.70;;;;;;;;;;5009773;28;20451;-64
2021/12/05 07:01:43;;;;;;;12.88;4.05;;;;;;;;;;5008236;28;20145;-64
2021/12/05 07:04:21;;;;;;;7.82;3.65;;;;;;;;;;5009081;28;20050;-64
2021/12/05 07:06:47;;;;;;;6.72;3.33;;;;;;;;;;4994220;28;20344;-64
2021/12/05 07:09:12;;;;;;;10.15;4.05;;;;;;;;;;5009921;28;20075;-64
2021/12/05 07:11:53;;;;;;;7.03;3.40;;;;;;;;;;5009515;28;20346;-64
2021/12/05 07:14:34;;;;;;;7.72;3.72;;;;;;;;;;5009636;28;20029;-64
2021/12/05 07:17:07;;;;;;;9.95;3.30;;;;;;;;;;5009773;28;20340;-64
2021/12/05 07:19:57;;;;;;;6.28;3.38;;;;;;;;;;5009705;28;20504;-64
2021/12/05 07:22:28;;;;;;;9.75;3.70;;;;;;;;;;5009227;28;20427;-65
2021/12/05 07:25:06;;;;;;;12.32;3.90;;;;;;;;;;5009538;28;20089;-68
2021/12/05 07:43:38;;;;;;;8.40;3.53;;;;;;;;;;4991906;28;20028;-64
2021/12/05 07:46:05;;;;;;;7.45;3.83;;;;;;;;;;5009000;28;20051;-64
2021/12/05 07:48:34;;;;;;;8.05;3.38;;;;;;;;;;5009171;28;20398;-64
2021/12/05 07:51:14;;;;;;;6.95;3.10;;;;;;;;;;5008967;28;20431;-66
2021/12/05 07:53:57;;;;;;;8.32;2.70;;;;;;;;;;5008487;28;20464;-64
2021/12/05 07:59:19;;;;;;;;;;;;;;;;;;5009434;28;20475;-64
2021/12/05 08:15:31;;;;;;;6.47;2.72;;;;;;;;;;5008786;28;20465;-64
2021/12/05 08:17:58;;;;;;;8.63;3.63;;;;;;;;;;5008721;28;20487;-64
2021/12/05 08:20:35;;;;;;;6.95;3.60;;;;;;;;;;5008397;28;20432;-65
2021/12/05 08:23:01;;;;;;;9.25;4.55;;;;;;;;;;4990308;28;20360;-65
2021/12/05 08:25:30;;;;;;;10.27;3.97;;;;;;;;;;5009234;28;20461;-64
2021/12/05 08:28:06;;;;;;;9.27;4.20;;;;;;;;;;5008113;28;20435;-64
2021/12/05 08:30:35;;;;;;;11.80;4.30;;;;;;;;;;5007187;28;20443;-64
2021/12/05 08:36:04;;;;;;;9.07;3.63;;;;;;;;;;5009630;28;20433;-64
2021/12/05 09:26:43;;;;;;;11.68;4.00;;;;;;;;;;5011955;28;20348;-64
2021/12/05 10:01:47;;;;;;;9.85;4.93;;;;;;;;;;4975949;28;20395;-66
2021/12/05 10:02:08;;;;;;;11.55;5.50;;;;;;;;;;4992865;28;20520;-64
2021/12/05 10:18:34;;;;;;;11.30;5.35;;;;;;;;;;4991000;28;20080;-65
2021/12/05 10:37:17;;;;;;;15.02;6.70;;;;;;;;;;4975150;28;20408;-65
2021/12/05 10:39:43;;;;;;;9.68;4.90;;;;;;;;;;4991103;28;20036;-65
2021/12/05 10:42:34;;;;;;;9.70;5.03;;;;;;;;;;4991340;28;20421;-67
2021/12/05 10:44:59;;;;;;;13.23;6.32;;;;;;;;;;4991143;28;20383;-65
2021/12/05 10:47:40;;;;;;;14.50;6.72;;;;;;;;;;4990601;28;20379;-65
2021/12/05 10:50:30;;;;;;;13.60;5.45;;;;;;;;;;4990451;28;20332;-65
2021/12/05 10:53:20;;;;;;;11.32;5.82;;;;;;;;;;4998577;28;20071;-65
2021/12/05 10:55:46;;;;;;;14.18;5.88;;;;;;;;;;5009773;28;20353;-65
2021/12/05 10:58:11;;;;;;;11.98;5.38;;;;;;;;;;5008518;28;20462;-65
2021/12/05 11:00:37;;;;;;;15.23;6.95;;;;;;;;;;5009388;28;20123;-65
2021/12/05 11:03:19;;;;;;;13.02;7.13;;;;;;;;;;4992429;28;20325;-65
2021/12/05 11:05:45;;;;;;;14.77;8.02;;;;;;;;;;5010740;28;20033;-65
2021/12/05 11:08:29;;;;;;;14.63;6.32;;;;;;;;;;5009153;28;20474;-65
2021/12/05 11:11:06;;;;;;;14.93;6.82;;;;;;;;;;5004053;28;20335;-65
2021/12/05 11:13:31;;;;;;;14.65;7.00;;;;;;;;;;5008030;28;20391;-65
2021/12/05 11:15:57;;;;;;;17.23;8.50;;;;;;;;;;5009430;28;20111;-65
2021/12/05 11:18:42;;;;;;;12.90;6.72;;;;;;;;;;5009218;28;20428;-65
2021/12/05 11:21:34;;;;;;;15.32;7.10;;;;;;;;;;5009821;28;20422;-65
2021/12/05 11:24:12;;;;;;;16.55;6.97;;;;;;;;;;5011193;28;20458;-65
2021/12/05 11:26:40;;;;;;;24.75;10.98;;;;;;;;;;5009443;28;20439;-66
2021/12/05 11:29:06;;;;;;;17.52;8.02;;;;;;;;;;5009276;28;20328;-68
2021/12/05 11:31:33;;;;;;;17.33;7.82;;;;;;;;;;5007553;28;20402;-65
2021/12/05 11:33:58;;;;;;;12.65;7.00;;;;;;;;;;5009468;28;20370;-65
2021/12/05 11:36:30;;;;;;;17.25;8.85;;;;;;;;;;5009001;28;20359;-66
2021/12/05 11:38:55;;;;;;;19.55;8.20;;;;;;;;;;5009198;28;20473;-65
2021/12/05 11:41:23;;;;;;;18.50;8.13;;;;;;;;;;5009002;28;20398;-68
2021/12/05 11:43:54;;;;;;;15.48;7.40;;;;;;;;;;5010107;28;20320;-65
2021/12/05 11:46:25;;;;;;;16.70;7.70;;;;;;;;;;4990682;28;20324;-65
2021/12/05 11:48:59;;;;;;;13.18;7.85;;;;;;;;;;5009892;28;20400;-66
2021/12/05 11:51:53;;;;;;;14.02;7.63;;;;;;;;;;5010441;28;20446;-65
2021/12/05 11:54:29;;;;;;;13.65;7.53;;;;;;;;;;4989201;28;20474;-65
2021/12/05 11:57:06;;;;;;;17.38;8.05;;;;;;;;;;4988761;28;20025;-65
2021/12/05 11:59:51;;;;;;;15.77;7.85;;;;;;;;;;4989584;28;20414;-67
2021/12/05 12:02:29;;;;;;;14.65;6.63;;;;;;;;;;4988684;28;20431;-66
2021/12/05 12:05:03;;;;;;;14.65;8.02;;;;;;;;;;4987991;28;20366;-66
2021/12/05 12:07:34;;;;;;;20.02;7.88;;;;;;;;;;4987684;28;20025;-66
2021/12/05 12:10:02;;;;;;;16.88;9.10;;;;;;;;;;4988915;28;20425;-66
2021/12/05 12:12:28;;;;;;;16.75;8.15;;;;;;;;;;4988944;28;20029;-66
2021/12/05 12:14:54;;;;;;;15.43;7.80;;;;;;;;;;4989027;28;20479;-65
2021/12/05 12:17:19;;;;;;;19.70;8.18;;;;;;;;;;4989237;28;20489;-65
2021/12/05 12:19:50;;;;;;;17.02;7.00;;;;;;;;;;4988876;28;20344;-66
2021/12/05 12:22:20;;;;;;;19.05;8.88;;;;;;;;;;4970823;28;20403;-66
2021/12/05 12:24:52;;;;;;;17.58;7.88;;;;;;;;;;4987724;28;20435;-66
2021/12/05 12:27:17;;;;;;;15.30;7.72;;;;;;;;;;4988352;28;20021;-67
2021/12/05 12:29:44;;;;;;;17.10;8.10;;;;;;;;;;4970843;28;20455;-66
2021/12/05 12:32:14;;;;;;;14.18;7.78;;;;;;;;;;4970532;28;20465;-66
2021/12/05 12:34:40;;;;;;;18.73;8.18;;;;;;;;;;4971525;28;20075;-69
2021/12/05 12:37:06;;;;;;;16.38;7.90;;;;;;;;;;4987215;28;20425;-67
2021/12/05 12:39:36;;;;;;;17.73;8.65;;;;;;;;;;4989221;28;20033;-66
2021/12/05 12:42:10;;;;;;;;;;;;;;;;;;4970915;28;20055;-65
2021/12/05 12:44:36;;;;;;;15.10;8.70;;;;;;;;;;4988858;28;20069;-65
2021/12/05 12:47:05;;;;;;;14.45;7.45;;;;;;;;;;4988994;28;20037;-66
2021/12/05 12:49:36;;;;;;;17.70;8.18;;;;;;;;;;4987452;28;20351;-66
2021/12/05 12:52:08;;;;;;;19.23;8.55;;;;;;;;;;4989188;28;20376;-66
2021/12/05 12:54:44;;;;;;;19.42;9.43;;;;;;;;;;5008509;28;20435;-65
2021/12/05 12:57:26;;;;;;;20.52;7.88;;;;;;;;;;4989969;28;20362;-66
2021/12/05 12:59:57;;;;;;;22.88;8.50;;;;;;;;;;5008208;28;20442;-66
2021/12/05 13:04:06;;;;;;;15.75;7.93;;;;;;;;;;5007998;28;20029;-65
2021/12/05 13:05:53;;;;;;;17.25;7.60;;;;;;;;;;4981690;28;20496;-65
2021/12/05 13:11:12;;;;;;;21.45;7.97;;;;;;;;;;5007016;28;20512;-65
2021/12/05 13:13:42;;;;;;;18.30;7.88;;;;;;;;;;4990420;28;20393;-67
2021/12/05 13:16:29;;;;;;;16.23;7.90;;;;;;;;;;5006784;28;20447;-66
2021/12/05 13:19:06;;;;;;;18.73;8.10;;;;;;;;;;5008119;28;20431;-65
2021/12/05 13:21:36;;;;;;;17.50;8.55;;;;;;;;;;5008135;28;20312;-66
2021/12/05 13:24:23;;;;;;;19.52;8.50;;;;;;;;;;5008645;28;20098;-66
2021/12/05 13:26:49;;;;;;;17.60;8.20;;;;;;;;;;5008180;28;20028;-65
2021/12/05 13:29:22;;;;;;;18.92;7.72;;;;;;;;;;4989850;28;20182;-66
2021/12/05 13:31:53;;;;;;;17.25;8.10;;;;;;;;;;5007894;28;20028;-66
2021/12/05 13:34:26;;;;;;;17.85;8.23;;;;;;;;;;5007884;28;20174;-65
2021/12/05 13:37:08;;;;;;;16.98;8.32;;;;;;;;;;4993065;28;20450;-67
2021/12/05 13:39:44;;;;;;;15.82;7.88;;;;;;;;;;5011150;28;20572;-65
2021/12/05 13:42:48;;;;;;;20.58;8.57;;;;;;;;;;5012311;28;20496;-66
2021/12/05 13:45:26;;;;;;;16.85;7.47;;;;;;;;;;4984586;28;20364;-65
2021/12/05 13:47:51;;;;;;;15.90;7.57;;;;;;;;;;5012420;28;20028;-65
2021/12/05 13:50:21;;;;;;;16.50;7.45;;;;;;;;;;5011210;28;20029;-65
2021/12/05 13:53:02;;;;;;;14.65;7.90;;;;;;;;;;5010259;28;20455;-66
2021/12/05 13:55:53;;;;;;;22.80;9.60;;;;;;;;;;5012794;28;20352;-65
2021/12/05 13:58:35;;;;;;;19.65;8.82;;;;;;;;;;5011026;28;20439;-65
2021/12/05 14:01:18;;;;;;;14.35;7.13;;;;;;;;;;5010881;28;20493;-65
2021/12/05 14:03:55;;;;;;;18.00;8.38;;;;;;;;;;5011074;28;20348;-66
2021/12/05 14:06:37;;;;;;;18.02;7.55;;;;;;;;;;5010506;28;20486;-65
2021/12/05 14:09:06;;;;;;;16.67;8.35;;;;;;;;;;5012138;28;20025;-66
2021/12/05 14:11:32;;;;;;;18.05;9.38;;;;;;;;;;5011173;28;20313;-66
2021/12/05 14:13:58;;;;;;;20.42;7.90;;;;;;;;;;5010883;28;20558;-65
2021/12/05 14:16:37;;;;;;;16.02;8.00;;;;;;;;;;5010969;28;20482;-65
2021/12/05 14:19:06;;;;;;;16.33;7.97;;;;;;;;;;4993164;28;20024;-65
2021/12/05 14:21:32;;;;;;;18.45;8.68;;;;;;;;;;5010689;28;20078;-65
2021/12/05 14:24:00;;;;;;;18.27;8.48;;;;;;;;;;4992561;28;20174;-65
2021/12/05 14:26:27;;;;;;;19.55;8.50;;;;;;;;;;5011093;28;20411;-66
2021/12/05 14:29:07;;;;;;;21.02;8.38;;;;;;;;;;4992790;28;20370;-66
2021/12/05 14:31:49;;;;;;;22.90;10.57;;;;;;;;;;5010145;28;20371;-65
2021/12/05 14:34:15;;;;;;;17.58;8.68;;;;;;;;;;5010266;28;20452;-66
2021/12/05 14:36:46;;;;;;;17.23;8.40;;;;;;;;;;5010463;28;20340;-65
2021/12/05 14:39:20;;;;;;;18.30;8.93;;;;;;;;;;4992144;28;20037;-67
2021/12/05 14:41:48;;;;;;;18.85;8.18;;;;;;;;;;4992611;28;20508;-67
2021/12/05 14:44:15;;;;;;;20.00;8.98;;;;;;;;;;5010551;28;20123;-67
2021/12/05 14:46:59;;;;;;;18.10;8.18;;;;;;;;;;5008126;28;20075;-66
2021/12/05 14:49:29;;;;;;;19.60;7.82;;;;;;;;;;4991922;28;20428;-66
2021/12/05 14:51:56;;;;;;;17.25;9.25;;;;;;;;;;5009802;28;20124;-66
2021/12/05 14:54:28;;;;;;;17.35;8.23;;;;;;;;;;4990583;28;20111;-68
2021/12/05 14:56:55;;;;;;;18.00;8.48;;;;;;;;;;4989834;28;20037;-66
2021/12/05 14:59:21;;;;;;;24.00;8.90;;;;;;;;;;4988698;28;20351;-66
2021/12/05 15:01:52;;;;;;;19.00;8.30;;;;;;;;;;4990954;28;20316;-65
2021/12/05 15:04:22;;;;;;;20.02;8.15;;;;;;;;;;4991380;28;20025;-66
2021/12/05 15:06:48;;;;;;;16.23;8.23;;;;;;;;;;4988679;28;20017;-66
2021/12/05 15:09:32;;;;;;;17.92;8.93;;;;;;;;;;4988543;28;20456;-65
2021/12/05 15:12:03;;;;;;;17.23;8.30;;;;;;;;;;4990225;28;20428;-65
2021/12/05 15:14:29;;;;;;;19.98;8.50;;;;;;;;;;4988420;28;20340;-66
2021/12/05 15:16:59;;;;;;;19.33;8.13;;;;;;;;;;4988785;28;20382;-66
2021/12/05 15:19:24;;;;;;;19.48;8.75;;;;;;;;;;4988057;28;20355;-66
2021/12/05 15:21:50;;;;;;;16.80;7.88;;;;;;;;;;4988634;28;20336;-66
2021/12/05 15:24:17;;;;;;;17.23;7.78;;;;;;;;;;4989963;28;20398;-66
2021/12/05 15:26:42;;;;;;;17.15;7.55;;;;;;;;;;4989481;28;20344;-66
2021/12/05 15:29:08;;;;;;;16.15;8.00;;;;;;;;;;4989716;28;20428;-68
2021/12/05 15:31:35;;;;;;;19.50;8.45;;;;;;;;;;4988483;28;20383;-68
2021/12/05 15:34:02;;;;;;;20.00;7.55;;;;;;;;;;4989835;28;20391;-66
2021/12/05 15:36:34;;;;;;;16.90;8.68;;;;;;;;;;4988670;28;20337;-66
2021/12/05 15:39:10;;;;;;;17.30;8.73;;;;;;;;;;4989347;28;20412;-65
2021/12/05 15:41:35;;;;;;;16.05;8.10;;;;;;;;;;4987811;28;20386;-68
2021/12/05 15:44:01;;;;;;;15.20;7.72;;;;;;;;;;4989618;28;20032;-65
2021/12/05 15:46:29;;;;;;;18.80;8.25;;;;;;;;;;4990493;28;20410;-66
2021/12/05 15:48:57;;;;;;;20.23;7.53;;;;;;;;;;4987604;28;20492;-66
2021/12/05 15:51:22;;;;;;;20.52;8.93;;;;;;;;;;4987686;28;20448;-65
2021/12/05 15:53:48;;;;;;;14.35;8.07;;;;;;;;;;4975282;28;20467;-66
2021/12/05 15:56:16;;;;;;;19.70;8.02;;;;;;;;;;4972458;28;20367;-65
2021/12/05 15:58:46;;;;;;;15.98;8.13;;;;;;;;;;4971493;28;20416;-66
2021/12/05 16:01:18;;;;;;;16.40;8.00;;;;;;;;;;4990132;28;20379;-66
2021/12/05 16:03:52;;;;;;;16.90;8.10;;;;;;;;;;4988981;28;20411;-66
2021/12/05 16:06:19;;;;;;;20.70;8.45;;;;;;;;;;4989222;28;20383;-66
2021/12/05 16:08:49;;;;;;;20.80;8.82;;;;;;;;;;4988798;28;20352;-66
2021/12/05 16:11:17;;;;;;;19.27;9.10;;;;;;;;;;4971680;28;20407;-65
2021/12/05 16:13:43;;;;;;;18.90;9.25;;;;;;;;;;4971924;28;20398;-66
2021/12/05 16:16:15;;;;;;;22.60;9.15;;;;;;;;;;4971300;28;20408;-66
2021/12/05 16:18:44;;;;;;;17.45;9.15;;;;;;;;;;4971071;28;20408;-65
2021/12/05 16:21:15;;;;;;;18.60;7.80;;;;;;;;;;4989153;28;20044;-66
2021/12/05 16:23:40;;;;;;;17.73;8.35;;;;;;;;;;4988548;28;20350;-69
2021/12/05 16:26:10;;;;;;;17.58;7.75;;;;;;;;;;4988256;28;20430;-66
2021/12/05 16:28:35;;;;;;;;;;;;;;;;;;4989315;28;20356;-66
2021/12/05 16:31:06;;;;;;;20.40;8.13;;;;;;;;;;4970959;28;19913;-65
2021/12/05 16:33:34;;;;;;;19.92;8.60;;;;;;;;;;4971334;28;20047;-66
2021/12/05 16:36:00;;;;;;;18.20;8.60;;;;;;;;;;4988517;28;20436;-66
2021/12/05 16:38:39;;;;;;;21.20;9.23;;;;;;;;;;4988662;28;20412;-65
2021/12/05 16:41:09;;;;;;;23.42;9.05;;;;;;;;;;4990283;28;20427;-66
2021/12/05 16:43:37;;;;;;;17.88;8.05;;;;;;;;;;4989450;28;20305;-65
2021/12/05 16:46:11;;;;;;;23.60;8.10;;;;;;;;;;4970786;28;20333;-66
2021/12/05 16:48:37;;;;;;;20.85;8.25;;;;;;;;;;4988153;28;20051;-66
2021/12/05 16:51:44;;;;;;;19.60;7.97;;;;;;;;;;4971021;28;20424;-65
2021/12/05 16:54:24;;;;;;;19.92;8.30;;;;;;;;;;4966140;28;20456;-66
2021/12/05 16:56:52;;;;;;;19.20;8.75;;;;;;;;;;4988387;28;20388;-65
2021/12/05 16:59:23;;;;;;;18.25;8.20;;;;;;;;;;4987959;28;20094;-65
2021/12/05 17:02:20;;;;;;;17.65;7.57;;;;;;;;;;4988686;28;20519;-65
2021/12/05 17:05:02;;;;;;;19.60;8.35;;;;;;;;;;4988096;28;20455;-66
2021/12/05 17:08:08;;;;;;;21.02;8.68;;;;;;;;;;4988359;28;20444;-65
2021/12/05 17:10:50;;;;;;;19.20;8.48;;;;;;;;;;4989159;28;20036;-65
2021/12/05 17:13:24;;;;;;;19.80;8.65;;;;;;;;;;4991873;28;20528;-65
2021/12/05 17:15:59;;;;;;;19.30;8.40;;;;;;;;;;4992353;28;20344;-65
2021/12/05 17:18:35;;;;;;;16.95;8.38;;;;;;;;;;4990785;28;20368;-66
2021/12/05 17:21:07;;;;;;;19.73;9.02;;;;;;;;;;4990161;28;20344;-66
2021/12/05 17:23:42;;;;;;;19.60;8.52;;;;;;;;;;4991783;28;20390;-66
2021/12/05 17:26:38;;;;;;;21.92;9.05;;;;;;;;;;4800300;28;5001854;-66
2021/12/05 17:29:12;;;;;;;22.42;9.68;;;;;;;;;;4991551;28;20372;-66
2021/12/05 17:31:43;;;;;;;17.75;7.93;;;;;;;;;;4990324;28;20025;-66
2021/12/05 17:34:13;;;;;;;15.95;8.15;;;;;;;;;;4991530;28;20052;-68
2021/12/05 17:36:41;;;;;;;19.33;9.25;;;;;;;;;;4991283;28;20523;-66
2021/12/05 17:39:16;;;;;;;20.98;9.77;;;;;;;;;;4990200;28;20099;-65
2021/12/05 17:41:45;;;;;;;20.83;9.32;;;;;;;;;;4989647;28;20329;-66
2021/12/05 17:44:13;;;;;;;22.48;9.40;;;;;;;;;;4992090;28;20534;-66
2021/12/05 17:46:39;;;;;;;19.87;8.37;;;;;;;;;;4990159;28;20025;-65
2021/12/05 17:49:07;;;;;;;23.33;9.40;;;;;;;;;;4991766;28;20029;-66
2021/12/05 17:51:37;;;;;;;23.07;10.43;;;;;;;;;;4989659;28;20438;-65
2021/12/05 17:54:06;;;;;;;19.92;9.23;;;;;;;;;;5009555;28;20463;-66
2021/12/05 17:56:41;;;;;;;21.30;9.27;;;;;;;;;;4992931;28;20033;-65
2021/12/05 17:59:26;;;;;;;22.73;10.85;;;;;;;;;;5010971;28;20043;-66
2021/12/05 18:04:40;;;;;;;20.17;9.43;;;;;;;;;;5011138;28;20367;-66
2021/12/05 18:07:06;;;;;;;29.67;10.43;;;;;;;;;;5012789;28;20443;-65
2021/12/05 18:09:31;;;;;;;21.95;10.68;;;;;;;;;;5010514;28;20428;-66
2021/12/05 18:11:56;;;;;;;29.92;11.48;;;;;;;;;;5011041;28;20415;-66
2021/12/05 18:14:22;;;;;;;25.45;10.88;;;;;;;;;;4992578;28;20440;-66
2021/12/05 18:16:47;;;;;;;26.60;12.23;;;;;;;;;;5011406;28;20394;-65
2021/12/05 18:19:17;;;;;;;25.33;10.65;;;;;;;;;;5010504;28;20521;-65
2021/12/05 18:21:43;;;;;;;26.50;10.75;;;;;;;;;;5010986;28;20044;-65
2021/12/05 18:24:14;;;;;;;28.38;10.80;;;;;;;;;;5010363;28;20427;-66
2021/12/05 18:26:40;;;;;;;27.25;11.98;;;;;;;;;;4993438;28;20331;-65
2021/12/05 18:29:08;;;;;;;29.33;12.73;;;;;;;;;;5010601;28;20443;-65
2021/12/05 18:31:35;;;;;;;31.80;12.65;;;;;;;;;;4992462;28;20028;-65
2021/12/05 18:34:05;;;;;;;29.65;12.18;;;;;;;;;;5011486;28;20324;-66
2021/12/05 18:36:32;;;;;;;25.05;11.38;;;;;;;;;;4992957;28;20447;-66
2021/12/05 18:38:59;;;;;;;26.10;10.65;;;;;;;;;;4992502;28;20336;-66
2021/12/05 18:41:26;;;;;;;29.15;12.63;;;;;;;;;;4992296;28;20029;-65
2021/12/05 18:43:52;;;;;;;30.83;12.68;;;;;;;;;;4992468;28;20340;-66
2021/12/05 18:46:17;;;;;;;27.67;11.70;;;;;;;;;;4975877;28;20355;-67
2021/12/05 18:48:46;;;;;;;30.20;13.27;;;;;;;;;;5010460;28;20425;-66
2021/12/05 18:51:13;;;;;;;30.07;13.93;;;;;;;;;;5010334;28;20107;-66
2021/12/05 18:53:38;;;;;;;27.20;13.02;;;;;;;;;;5010070;28;20701;-66
2021/12/05 18:56:04;;;;;;;31.95;12.73;;;;;;;;;;5010290;28;20446;-66
2021/12/05 18:58:29;;;;;;;32.70;13.68;;;;;;;;;;4992203;28;20055;-65
2021/12/05 19:06:39;;;;;;;32.05;12.73;;;;;;;;;;5010702;28;20501;-66
2021/12/05 19:11:42;;;;;;;37.65;14.60;;;;;;;;;;5009390;28;20436;-67
2021/12/05 19:11:57;;;;;;;31.77;14.43;;;;;;;;;;5004440;28;20446;-66
2021/12/05 19:14:23;;;;;;;38.28;14.63;;;;;;;;;;5009526;28;20428;-66
2021/12/05 19:16:51;;;;;;;30.55;14.15;;;;;;;;;;5009712;28;20315;-66
2021/12/05 19:19:18;;;;;;;34.20;14.93;;;;;;;;;;5009204;28;20356;-66
2021/12/05 19:21:46;;;;;;;34.25;14.55;;;;;;;;;;5009837;28;20029;-66
2021/12/05 19:24:11;;;;;;;38.22;14.48;;;;;;;;;;5009434;28;20432;-66
2021/12/05 19:26:37;;;;;;;29.92;14.18;;;;;;;;;;5009380;28;20086;-66
2021/12/05 19:29:03;;;;;;;30.08;13.85;;;;;;;;;;5010037;28;20386;-66
2021/12/05 19:31:29;;;;;;;34.40;13.10;;;;;;;;;;5009504;28;20051;-67
2021/12/05 19:33:55;;;;;;;33.95;15.07;;;;;;;;;;5008596;28;20415;-66
2021/12/05 19:36:21;;;;;;;38.50;15.32;;;;;;;;;;5009499;28;20086;-65
2021/12/05 19:38:47;;;;;;;33.72;15.98;;;;;;;;;;5008774;28;20343;-66
2021/12/05 19:41:14;;;;;;;31.95;14.77;;;;;;;;;;4991269;28;20372;-66
2021/12/05 19:43:42;;;;;;;32.58;14.73;;;;;;;;;;5010508;28;20323;-66
2021/12/05 19:46:10;;;;;;;35.25;16.13;;;;;;;;;;5010501;28;20363;-66
2021/12/05 19:48:36;;;;;;;43.92;16.48;;;;;;;;;;4991564;28;20020;-68
2021/12/05 19:51:07;;;;;;;34.50;13.95;;;;;;;;;;5009596;28;20029;-66
2021/12/05 19:53:36;;;;;;;37.38;16.23;;;;;;;;;;5009432;28;20462;-66
2021/12/05 19:56:03;;;;;;;29.60;13.98;;;;;;;;;;5008997;28;20046;-66
2021/12/05 19:58:28;;;;;;;27.45;13.30;;;;;;;;;;5008993;28;20098;-67
2021/12/05 20:00:53;;;;;;;33.00;13.88;;;;;;;;;;5009842;28;20573;-65